createdAt,value
2022-10-07T00:01:02.869Z,75.91
2022-10-07T00:03:31.155Z,75.64
2022-10-07T00:06:06.888Z,75.88
2022-10-07T00:08:37.766Z,75.79
2022-10-07T00:11:07.907Z,75.93
2022-10-07T00:13:38.803Z,76.00
2022-10-07T00:16:08.879Z,76.37
2022-10-07T00:18:37.856Z,76.12
2022-10-07T00:21:07.329Z,76.11
2022-10-07T00:23:37.400Z,76.11
2022-10-07T00:26:07.327Z,76.31
2022-10-07T00:28:36.278Z,76.52
2022-10-07T00:31:06.706Z,76.43
2022-10-07T00:33:36.272Z,76.61
2022-10-07T00:36:08.477Z,76.80
2022-10-07T00:38:37.574Z,76.27
2022-10-07T00:41:05.594Z,76.42
2022-10-07T00:43:34.048Z,76.65
2022-10-07T00:46:07.135Z,76.66
2022-10-07T00:48:37.410Z,77.33
2022-10-07T00:51:05.485Z,77.24
2022-10-07T00:53:36.992Z,77.00
2022-10-07T00:56:08.661Z,77.48
2022-10-07T00:58:39.131Z,77.45
2022-10-07T01:01:07.342Z,77.33
2022-10-07T01:03:37.327Z,77.79
2022-10-07T01:06:05.909Z,77.21
2022-10-07T01:08:34.627Z,77.62
2022-10-07T01:11:14.867Z,77.60
2022-10-07T01:13:50.138Z,77.92
2022-10-07T01:16:24.347Z,78.13
2022-10-07T01:18:58.656Z,78.32
2022-10-07T01:21:39.194Z,78.52
2022-10-07T01:24:18.629Z,78.54
2022-10-07T01:26:57.293Z,78.49
2022-10-07T01:29:31.785Z,78.51
2022-10-07T01:32:04.948Z,77.82
2022-10-07T01:34:35.772Z,77.96
2022-10-07T01:37:07.274Z,78.36
2022-10-07T01:39:38.513Z,78.43
2022-10-07T01:42:08.288Z,78.27
2022-10-07T01:44:36.755Z,78.28
2022-10-07T01:47:04.672Z,78.36
2022-10-07T01:49:32.443Z,77.97
2022-10-07T01:52:18.447Z,78.32
2022-10-07T01:55:05.281Z,78.56
2022-10-07T01:57:47.380Z,78.15
2022-10-07T02:00:16.350Z,78.61
2022-10-07T02:03:00.612Z,79.14
2022-10-07T02:05:38.211Z,79.00
2022-10-07T02:08:22.966Z,79.41
2022-10-07T02:11:02.835Z,79.77
2022-10-07T02:13:37.897Z,80.42
2022-10-07T02:16:13.814Z,79.95
2022-10-07T02:18:48.327Z,80.08
2022-10-07T02:21:19.278Z,80.07
2022-10-07T02:23:48.224Z,80.25
2022-10-07T02:26:20.654Z,80.84
2022-10-07T02:28:53.359Z,80.55
2022-10-07T02:31:25.533Z,80.93
2022-10-07T02:33:57.353Z,81.00
2022-10-07T02:36:30.353Z,81.33
2022-10-07T02:39:00.244Z,81.16
2022-10-07T02:41:36.266Z,80.92
2022-10-07T02:44:15.177Z,80.97
2022-10-07T02:46:49.568Z,81.35
2022-10-07T02:49:20.119Z,81.00
2022-10-07T02:51:53.934Z,81.53
2022-10-07T02:54:27.225Z,81.57
2022-10-07T02:56:55.814Z,80.90
2022-10-07T02:59:26.167Z,81.20
2022-10-07T03:01:56.877Z,81.51
2022-10-07T03:04:24.973Z,81.48
2022-10-07T03:06:52.842Z,81.53
2022-10-07T03:09:20.670Z,81.16
2022-10-07T03:11:49.379Z,81.38
2022-10-07T03:14:17.185Z,81.22
2022-10-07T03:16:46.319Z,81.58
2022-10-07T03:19:14.100Z,81.60
2022-10-07T03:21:41.881Z,81.35
2022-10-07T03:24:09.695Z,81.59
2022-10-07T03:26:37.938Z,82.26
2022-10-07T03:29:06.556Z,82.23
2022-10-07T03:31:34.371Z,81.65
2022-10-07T03:34:03.765Z,81.65
2022-10-07T03:36:31.521Z,82.62
2022-10-07T03:38:59.296Z,82.31
2022-10-07T03:41:27.053Z,82.69
2022-10-07T03:43:59.094Z,82.61
2022-10-07T03:46:27.056Z,82.60
2022-10-07T03:48:54.973Z,82.93
2022-10-07T03:51:24.428Z,82.33
2022-10-07T03:53:54.669Z,82.43
2022-10-07T03:56:22.394Z,82.33
2022-10-07T03:58:50.440Z,83.05
2022-10-07T04:01:18.276Z,82.72
2022-10-07T04:03:46.110Z,82.99
2022-10-07T04:06:14.009Z,83.26
2022-10-07T04:08:43.727Z,83.32
2022-10-07T04:11:12.151Z,83.32
2022-10-07T04:13:40.607Z,82.63
2022-10-07T04:16:09.227Z,82.55
2022-10-07T04:18:37.332Z,82.48
2022-10-07T04:21:05.469Z,82.54
2022-10-07T04:23:33.226Z,82.53
2022-10-07T04:26:02.602Z,81.97
2022-10-07T04:28:30.427Z,82.41
2022-10-07T04:30:58.263Z,82.21
2022-10-07T04:33:26.363Z,81.77
2022-10-07T04:35:54.132Z,81.85
2022-10-07T04:38:26.301Z,81.95
2022-10-07T04:40:55.941Z,82.31
2022-10-07T04:43:24.419Z,81.81
2022-10-07T04:45:54.677Z,81.60
2022-10-07T04:48:24.594Z,81.67
2022-10-07T04:50:52.942Z,81.84
2022-10-07T04:53:21.306Z,81.78
2022-10-07T04:55:51.909Z,81.14
2022-10-07T04:58:20.792Z,81.65
2022-10-07T05:00:51.691Z,81.47
2022-10-07T05:03:21.167Z,81.44
2022-10-07T05:05:53.345Z,81.70
2022-10-07T05:08:24.434Z,81.51
2022-10-07T05:10:56.476Z,81.59
2022-10-07T05:13:26.443Z,81.32
2022-10-07T05:15:57.156Z,81.84
2022-10-07T05:18:26.400Z,81.54
2022-10-07T05:20:54.295Z,81.88
2022-10-07T05:23:28.152Z,81.79
2022-10-07T05:26:00.228Z,82.21
2022-10-07T05:28:28.151Z,81.94
2022-10-07T05:31:05.710Z,82.06
2022-10-07T05:33:33.946Z,82.06
2022-10-07T05:36:02.030Z,82.91
2022-10-07T05:38:29.797Z,82.64
2022-10-07T05:41:01.810Z,82.33
2022-10-07T05:43:30.946Z,82.90
2022-10-07T05:46:01.494Z,82.25
2022-10-07T05:48:36.638Z,82.57
2022-10-07T05:51:07.373Z,82.47
2022-10-07T05:53:35.917Z,83.01
2022-10-07T05:56:06.693Z,83.07
2022-10-07T05:58:36.221Z,83.18
2022-10-07T06:01:11.370Z,82.96
2022-10-07T06:03:43.592Z,83.35
2022-10-07T06:06:11.758Z,83.19
2022-10-07T06:08:39.555Z,84.18
2022-10-07T06:11:25.934Z,83.89
2022-10-07T06:13:55.655Z,83.76
2022-10-07T06:16:24.605Z,84.17
2022-10-07T06:18:54.888Z,83.90
2022-10-07T06:21:27.665Z,84.77
2022-10-07T06:23:58.034Z,84.77
2022-10-07T06:26:26.162Z,85.47
2022-10-07T06:28:53.954Z,84.98
2022-10-07T06:31:25.300Z,85.89
2022-10-07T06:33:55.526Z,85.76
2022-10-07T06:36:23.469Z,86.70
2022-10-07T06:38:52.889Z,86.98
2022-10-07T06:41:22.025Z,85.89
2022-10-07T06:43:49.953Z,86.36
2022-10-07T06:46:20.257Z,86.81
2022-10-07T06:48:48.169Z,86.50
2022-10-07T06:51:18.619Z,86.52
2022-10-07T06:53:46.949Z,87.16
2022-10-07T06:56:15.718Z,86.07
2022-10-07T06:58:44.010Z,87.04
2022-10-07T07:01:12.478Z,86.59
2022-10-07T07:03:40.425Z,87.37
2022-10-07T07:06:09.136Z,86.81
2022-10-07T07:08:41.286Z,86.64
2022-10-07T07:11:26.082Z,87.67
2022-10-07T07:13:54.714Z,88.04
2022-10-07T07:16:24.259Z,88.02
2022-10-07T07:18:53.756Z,88.38
2022-10-07T07:21:22.288Z,88.10
2022-10-07T07:23:52.128Z,87.53
2022-10-07T07:26:20.652Z,87.59
2022-10-07T07:28:52.476Z,87.83
2022-10-07T07:31:20.668Z,88.19
2022-10-07T07:33:52.576Z,87.37
2022-10-07T07:36:22.790Z,87.50
2022-10-07T07:38:53.674Z,86.46
2022-10-07T07:41:22.342Z,86.62
2022-10-07T07:43:51.306Z,85.83
2022-10-07T07:46:20.307Z,85.04
2022-10-07T07:48:49.672Z,84.25
2022-10-07T07:51:18.985Z,83.93
2022-10-07T07:53:47.546Z,83.37
2022-10-07T07:56:17.694Z,82.87
2022-10-07T07:58:45.447Z,83.85
2022-10-07T08:01:15.799Z,81.42
2022-10-07T08:03:46.340Z,81.32
2022-10-07T08:06:16.202Z,81.84
2022-10-07T08:08:44.208Z,81.80
2022-10-07T08:11:13.583Z,81.10
2022-10-07T08:13:43.059Z,80.21
2022-10-07T08:16:13.235Z,81.23
2022-10-07T08:18:41.736Z,80.98
2022-10-07T08:21:10.644Z,80.54
2022-10-07T08:23:39.871Z,79.05
2022-10-07T08:26:09.969Z,79.81
2022-10-07T08:28:39.359Z,79.64
2022-10-07T08:31:10.223Z,80.00
2022-10-07T08:33:40.750Z,79.89
2022-10-07T08:36:12.050Z,79.96
2022-10-07T08:38:41.376Z,79.23
2022-10-07T08:41:33.250Z,79.25
2022-10-07T08:44:12.133Z,79.25
2022-10-07T08:46:53.001Z,78.91
2022-10-07T08:49:27.800Z,78.33
2022-10-07T08:52:01.375Z,78.81
2022-10-07T08:54:31.394Z,78.01
2022-10-07T08:57:06.858Z,78.84
2022-10-07T08:59:36.728Z,78.31
2022-10-07T09:02:23.786Z,78.36
2022-10-07T09:04:59.788Z,78.06
2022-10-07T09:07:33.884Z,78.16
2022-10-07T09:10:06.476Z,78.30
2022-10-07T09:12:39.742Z,77.15
2022-10-07T09:15:19.162Z,76.39
2022-10-07T09:17:55.447Z,76.82
2022-10-07T09:20:31.710Z,76.94
2022-10-07T09:23:01.516Z,75.33
2022-10-07T09:25:31.405Z,75.31
2022-10-07T09:27:59.300Z,75.54
2022-10-07T09:30:29.592Z,74.94
2022-10-07T09:32:59.001Z,74.49
2022-10-07T09:35:29.164Z,74.30
2022-10-07T09:38:00.102Z,73.36
2022-10-07T09:40:34.720Z,73.60
2022-10-07T09:43:09.711Z,74.29
2022-10-07T09:45:37.804Z,74.34
2022-10-07T09:48:18.693Z,73.33
2022-10-07T09:50:46.793Z,71.27
2022-10-07T09:53:20.614Z,71.16
2022-10-07T09:55:49.147Z,71.91
2022-10-07T09:58:22.446Z,70.59
2022-10-07T10:00:52.263Z,71.89
2022-10-07T10:03:22.064Z,70.03
2022-10-07T10:05:57.540Z,69.01
2022-10-07T10:08:28.574Z,69.65
2022-10-07T10:10:58.262Z,70.42
2022-10-07T10:13:37.161Z,70.30
2022-10-07T10:16:07.280Z,68.33
2022-10-07T10:18:39.442Z,68.98
2022-10-07T10:21:30.186Z,66.42
2022-10-07T10:24:00.085Z,66.51
2022-10-07T10:26:42.057Z,65.26
2022-10-07T10:29:38.789Z,65.56
2022-10-07T10:32:27.636Z,65.72
2022-10-07T10:35:03.889Z,66.50
2022-10-07T10:37:49.111Z,64.20
2022-10-07T10:40:25.936Z,64.09
2022-10-07T10:43:08.139Z,63.11
2022-10-07T10:45:41.898Z,64.98
2022-10-07T10:48:30.107Z,63.16
2022-10-07T10:51:10.199Z,64.65
2022-10-07T10:53:47.744Z,64.81
2022-10-07T10:56:28.958Z,64.33
2022-10-07T10:59:14.826Z,63.74
2022-10-07T11:01:46.331Z,64.38
2022-10-07T11:04:25.980Z,63.95
2022-10-07T11:07:01.346Z,63.73
2022-10-07T11:09:35.149Z,63.91
2022-10-07T11:12:06.999Z,63.99
2022-10-07T11:14:47.205Z,63.50
2022-10-07T11:17:17.128Z,63.63
2022-10-07T11:19:56.415Z,63.10
2022-10-07T11:22:34.211Z,63.01
2022-10-07T11:25:09.956Z,63.26
2022-10-07T11:27:38.047Z,63.47
2022-10-07T11:30:08.991Z,62.58
2022-10-07T11:32:46.097Z,60.95
2022-10-07T11:35:25.673Z,60.26
2022-10-07T11:38:01.638Z,59.95
2022-10-07T11:40:32.938Z,60.98
2022-10-07T11:43:09.023Z,60.01
2022-10-07T11:45:43.405Z,60.66
2022-10-07T11:48:19.429Z,60.12
2022-10-07T11:50:55.070Z,59.66
2022-10-07T11:53:27.132Z,60.24
2022-10-07T11:56:00.895Z,59.70
2022-10-07T11:58:33.305Z,57.26
2022-10-07T12:01:32.932Z,56.91
2022-10-07T12:04:38.183Z,57.37
2022-10-07T12:07:38.800Z,57.60
2022-10-07T12:10:32.742Z,58.41
2022-10-07T12:13:22.609Z,57.46
2022-10-07T12:15:51.728Z,56.87
2022-10-07T12:18:29.147Z,56.56
2022-10-07T12:21:15.204Z,58.47
2022-10-07T12:23:44.815Z,59.11
2022-10-07T12:26:49.981Z,57.56
2022-10-07T12:29:48.502Z,57.17
2022-10-07T12:32:43.087Z,57.36
2022-10-07T12:35:51.478Z,58.15
2022-10-07T12:38:31.062Z,57.82
2022-10-07T12:41:17.766Z,57.62
2022-10-07T12:43:58.312Z,58.16
2022-10-07T12:46:34.679Z,57.62
2022-10-07T12:49:05.596Z,58.26
2022-10-07T12:51:39.520Z,58.42
2022-10-07T12:54:13.971Z,57.15
2022-10-07T12:56:44.448Z,57.20
2022-10-07T12:59:49.687Z,58.25
2022-10-07T13:02:56.471Z,57.66
2022-10-07T13:05:59.449Z,57.00
2022-10-07T13:09:04.439Z,58.06
2022-10-07T13:11:59.808Z,58.30
2022-10-07T13:14:34.425Z,56.38
2022-10-07T13:17:16.581Z,56.85
2022-10-07T13:19:56.848Z,55.61
2022-10-07T13:22:25.321Z,57.32
2022-10-07T13:24:55.815Z,56.68
2022-10-07T13:27:27.721Z,56.61
2022-10-07T13:29:56.643Z,57.13
2022-10-07T13:32:28.070Z,57.40
2022-10-07T13:34:58.898Z,57.20
2022-10-07T13:37:28.842Z,56.74
2022-10-07T13:39:57.411Z,56.94
2022-10-07T13:42:28.983Z,56.74
2022-10-07T13:45:02.858Z,56.98
2022-10-07T13:47:33.891Z,56.17
2022-10-07T13:50:03.915Z,55.87
2022-10-07T13:52:36.676Z,55.06
2022-10-07T13:55:20.537Z,54.56
2022-10-07T13:57:49.155Z,55.37
2022-10-07T14:00:17.741Z,55.20
2022-10-07T14:02:46.292Z,55.23
2022-10-07T14:05:22.896Z,54.21
2022-10-07T14:07:54.739Z,54.13
2022-10-07T14:10:24.597Z,54.97
2022-10-07T14:12:58.013Z,54.32
2022-10-07T14:15:29.090Z,53.89
2022-10-07T14:18:00.413Z,53.56
2022-10-07T14:20:33.162Z,52.12
2022-10-07T14:23:02.936Z,52.62
2022-10-07T14:25:33.022Z,53.79
2022-10-07T14:28:17.207Z,52.14
2022-10-07T14:31:04.086Z,52.77
2022-10-07T14:34:03.568Z,51.64
2022-10-07T14:36:33.437Z,53.05
2022-10-07T14:39:04.010Z,52.95
2022-10-07T14:41:33.323Z,52.77
2022-10-07T14:44:03.803Z,52.65
2022-10-07T14:46:31.802Z,53.67
2022-10-07T14:48:59.624Z,53.27
2022-10-07T14:51:29.537Z,53.13
2022-10-07T14:54:03.266Z,52.30
2022-10-07T14:56:33.605Z,53.35
2022-10-07T14:59:01.779Z,53.60
2022-10-07T15:01:30.478Z,52.52
2022-10-07T15:03:58.816Z,53.20
2022-10-07T15:06:26.850Z,52.88
2022-10-07T15:08:54.921Z,52.97
2022-10-07T15:11:24.175Z,53.16
2022-10-07T15:13:51.978Z,52.68
2022-10-07T15:16:21.954Z,52.55
2022-10-07T15:18:52.837Z,53.08
2022-10-07T15:21:21.694Z,53.41
2022-10-07T15:23:52.117Z,54.08
2022-10-07T15:26:23.684Z,54.18
2022-10-07T15:28:55.286Z,54.00
2022-10-07T15:31:24.367Z,54.51
2022-10-07T15:33:52.264Z,54.25
2022-10-07T15:36:19.921Z,54.44
2022-10-07T15:38:47.679Z,54.62
2022-10-07T15:41:30.429Z,54.08
2022-10-07T15:44:01.085Z,54.81
2022-10-07T15:46:29.096Z,54.70
2022-10-07T15:48:57.321Z,54.74
2022-10-07T15:51:26.495Z,54.85
2022-10-07T15:53:54.460Z,55.92
2022-10-07T15:56:22.535Z,56.04
2022-10-07T15:58:50.337Z,56.15
2022-10-07T16:01:22.194Z,55.67
2022-10-07T16:03:50.944Z,56.42
2022-10-07T16:06:21.515Z,56.62
2022-10-07T16:08:49.645Z,56.82
2022-10-07T16:11:18.667Z,57.00
2022-10-07T16:13:48.086Z,56.85
2022-10-07T16:16:17.637Z,56.91
2022-10-07T16:18:48.869Z,57.00
2022-10-07T16:21:18.362Z,57.46
2022-10-07T16:23:47.435Z,57.58
2022-10-07T16:26:16.498Z,57.63
2022-10-07T16:29:03.235Z,57.85
2022-10-07T16:31:31.946Z,58.03
2022-10-07T16:34:01.321Z,58.35
2022-10-07T16:36:29.150Z,58.60
2022-10-07T16:38:59.713Z,58.86
2022-10-07T16:41:27.532Z,59.26
2022-10-07T16:43:57.401Z,59.24
2022-10-07T16:46:25.231Z,59.36
2022-10-07T16:48:53.512Z,60.29
2022-10-07T16:51:24.617Z,60.56
2022-10-07T16:53:55.827Z,60.28
2022-10-07T16:56:24.089Z,60.97
2022-10-07T16:58:56.330Z,61.02
2022-10-07T17:01:25.486Z,61.67
2022-10-07T17:03:54.246Z,61.79
2022-10-07T17:06:26.736Z,61.96
2022-10-07T17:08:56.509Z,61.94
2022-10-07T17:11:31.431Z,62.03
2022-10-07T17:14:01.683Z,62.68
2022-10-07T17:16:32.536Z,62.55
2022-10-07T17:19:00.907Z,63.02
2022-10-07T17:21:30.032Z,63.29
2022-10-07T17:23:58.916Z,63.17
2022-10-07T17:26:28.054Z,63.54
2022-10-07T17:29:00.986Z,63.89
2022-10-07T17:31:30.331Z,64.44
2022-10-07T17:33:58.667Z,64.43
2022-10-07T17:36:26.923Z,64.75
2022-10-07T17:38:56.450Z,64.80
2022-10-07T17:41:26.003Z,65.04
2022-10-07T17:43:55.829Z,65.24
2022-10-07T17:46:25.729Z,65.20
2022-10-07T17:48:55.588Z,65.60
2022-10-07T17:51:27.293Z,65.24
2022-10-07T17:53:57.444Z,65.74
2022-10-07T17:56:25.495Z,65.26
2022-10-07T17:58:53.615Z,65.85
2022-10-07T18:01:25.035Z,65.86
2022-10-07T18:03:55.209Z,66.31
2022-10-07T18:06:23.839Z,66.40
2022-10-07T18:08:51.923Z,66.04
2022-10-07T18:11:21.450Z,66.95
2022-10-07T18:14:06.792Z,66.63
2022-10-07T18:16:35.799Z,66.89
2022-10-07T18:19:03.749Z,67.16
2022-10-07T18:21:32.561Z,67.54
2022-10-07T18:24:00.342Z,67.86
2022-10-07T18:26:29.768Z,67.33
2022-10-07T18:28:58.183Z,68.02
2022-10-07T18:31:27.024Z,67.48
2022-10-07T18:33:54.866Z,68.16
2022-10-07T18:36:22.670Z,68.20
2022-10-07T18:38:50.557Z,68.17
2022-10-07T18:41:19.107Z,68.62
2022-10-07T18:43:48.393Z,68.57
2022-10-07T18:46:18.059Z,68.52
2022-10-07T18:48:48.026Z,69.33
2022-10-07T18:51:16.214Z,68.65
2022-10-07T18:53:46.493Z,69.46
2022-10-07T18:56:16.356Z,69.58
2022-10-07T18:58:46.015Z,68.99
2022-10-07T19:01:16.798Z,69.41
2022-10-07T19:03:45.639Z,69.85
2022-10-07T19:06:15.583Z,69.94
2022-10-07T19:08:44.008Z,70.08
2022-10-07T19:11:15.530Z,70.42
2022-10-07T19:13:49.975Z,70.59
2022-10-07T19:16:20.871Z,71.24
2022-10-07T19:18:50.934Z,70.80
2022-10-07T19:21:20.163Z,71.04
2022-10-07T19:23:48.794Z,70.79
2022-10-07T19:26:21.355Z,71.04
2022-10-07T19:28:50.365Z,71.64
2022-10-07T19:31:23.319Z,71.65
2022-10-07T19:33:52.925Z,71.38
2022-10-07T19:36:21.912Z,71.34
2022-10-07T19:38:52.601Z,71.55
2022-10-07T19:41:24.796Z,71.85
2022-10-07T19:43:53.564Z,71.69
2022-10-07T19:46:25.686Z,72.19
2022-10-07T19:48:55.424Z,72.34
2022-10-07T19:51:23.533Z,72.46
2022-10-07T19:53:51.685Z,72.48
2022-10-07T19:56:21.418Z,72.70
2022-10-07T19:58:51.710Z,72.87
2022-10-07T20:01:22.851Z,72.98
2022-10-07T20:03:56.172Z,73.33
2022-10-07T20:06:25.231Z,73.36
2022-10-07T20:08:53.356Z,73.31
2022-10-07T20:11:21.737Z,73.68
2022-10-07T20:13:49.788Z,73.38
2022-10-07T20:16:19.613Z,73.58
2022-10-07T20:18:51.735Z,73.81
2022-10-07T20:21:22.163Z,74.03
2022-10-07T20:23:50.111Z,74.13
2022-10-07T20:26:19.600Z,74.04
2022-10-07T20:28:48.537Z,74.60
2022-10-07T20:31:18.733Z,74.38
2022-10-07T20:33:48.274Z,74.42
2022-10-07T20:36:19.292Z,74.99
2022-10-07T20:39:04.943Z,74.75
2022-10-07T20:41:50.243Z,75.18
2022-10-07T20:44:18.879Z,75.11
2022-10-07T20:46:46.641Z,75.02
2022-10-07T20:49:22.912Z,74.85
2022-10-07T20:51:52.660Z,75.03
2022-10-07T20:54:21.907Z,74.88
2022-10-07T20:56:52.058Z,75.40
2022-10-07T20:59:19.929Z,75.70
2022-10-07T21:01:48.279Z,75.59
2022-10-07T21:04:16.917Z,75.65
2022-10-07T21:06:44.929Z,75.64
2022-10-07T21:09:14.846Z,75.86
2022-10-07T21:11:42.649Z,75.86
2022-10-07T21:14:11.471Z,75.68
2022-10-07T21:16:39.711Z,75.67
2022-10-07T21:19:07.843Z,75.58
2022-10-07T21:21:35.811Z,75.91
2022-10-07T21:24:03.569Z,76.12
2022-10-07T21:26:33.626Z,76.38
2022-10-07T21:29:01.429Z,76.51
2022-10-07T21:31:31.354Z,76.28
2022-10-07T21:34:01.670Z,76.13
2022-10-07T21:36:29.619Z,76.32
2022-10-07T21:38:59.623Z,76.35
2022-10-07T21:41:31.085Z,76.40
2022-10-07T21:44:00.252Z,76.71
2022-10-07T21:46:30.983Z,76.91
2022-10-07T21:48:59.754Z,76.65
2022-10-07T21:51:29.504Z,76.89
2022-10-07T21:53:59.077Z,77.12
2022-10-07T21:56:28.245Z,77.07
2022-10-07T21:58:57.791Z,77.62
2022-10-07T22:01:27.263Z,78.06
2022-10-07T22:03:56.425Z,77.79
2022-10-07T22:06:45.158Z,78.12
2022-10-07T22:09:13.309Z,77.95
2022-10-07T22:11:41.500Z,78.04
2022-10-07T22:14:12.819Z,78.48
2022-10-07T22:16:42.536Z,78.06
2022-10-07T22:19:10.717Z,78.61
2022-10-07T22:21:40.389Z,79.36
2022-10-07T22:24:09.957Z,79.69
2022-10-07T22:26:40.569Z,79.63
2022-10-07T22:29:10.277Z,79.67
2022-10-07T22:31:38.131Z,79.65
2022-10-07T22:34:08.028Z,79.79
2022-10-07T22:36:36.759Z,80.41
2022-10-07T22:39:05.276Z,80.38
2022-10-07T22:41:33.105Z,80.32
2022-10-07T22:44:01.427Z,79.92
2022-10-07T22:46:29.709Z,80.32
2022-10-07T22:48:58.468Z,80.24
2022-10-07T22:51:28.564Z,80.02
2022-10-07T22:53:57.775Z,80.01
2022-10-07T22:56:27.603Z,80.25
2022-10-07T22:58:58.713Z,80.18
2022-10-07T23:01:28.537Z,80.05
2022-10-07T23:03:56.857Z,80.28
2022-10-07T23:06:25.371Z,80.95
2022-10-07T23:08:55.045Z,80.75
2022-10-07T23:11:24.771Z,81.04
2022-10-07T23:13:54.506Z,80.91
2022-10-07T23:16:24.755Z,80.95
2022-10-07T23:18:53.905Z,81.51
2022-10-07T23:21:23.708Z,81.85
2022-10-07T23:24:02.911Z,82.17
2022-10-07T23:26:34.164Z,82.15
2022-10-07T23:29:02.462Z,82.86
2022-10-07T23:31:32.439Z,82.53
2022-10-07T23:34:01.800Z,82.87
2022-10-07T23:36:30.534Z,83.17
2022-10-07T23:39:01.539Z,83.62
2022-10-07T23:41:30.475Z,83.27
2022-10-07T23:43:59.884Z,83.14
2022-10-07T23:46:28.752Z,83.28
2022-10-07T23:48:56.967Z,83.73
2022-10-07T23:51:27.156Z,83.88
2022-10-07T23:53:56.809Z,83.69
2022-10-07T23:56:26.136Z,83.75
2022-10-07T23:58:53.940Z,83.63
